createdAt,value
2023-12-01T00:03:35.106Z,81.30
2023-12-01T00:06:04.718Z,79.90
2023-12-01T00:08:33.010Z,80.00
2023-12-01T00:11:02.120Z,77.10
2023-12-01T00:13:30.588Z,79.40
2023-12-01T00:15:58.930Z,82.50
2023-12-01T00:18:27.865Z,86.30
2023-12-01T00:20:56.457Z,86.30
2023-12-01T00:23:24.719Z,85.60
2023-12-01T00:25:53.199Z,86.10
2023-12-01T00:28:21.537Z,85.80
2023-12-01T00:30:50.168Z,88.10
2023-12-01T00:33:18.781Z,83.40
2023-12-01T00:35:47.339Z,85.30
2023-12-01T00:38:15.595Z,86.10
2023-12-01T00:40:44.038Z,83.40
2023-12-01T00:43:14.218Z,84.30
2023-12-01T00:45:42.591Z,85.50
2023-12-01T00:48:11.311Z,86.80
2023-12-01T00:50:41.030Z,83.80
2023-12-01T00:53:10.383Z,86.00
2023-12-01T00:55:38.647Z,86.10
2023-12-01T00:58:06.939Z,84.10
2023-12-01T01:00:35.318Z,81.60
2023-12-01T01:03:03.781Z,87.00
2023-12-01T01:05:32.399Z,85.90
2023-12-01T01:08:01.666Z,83.00
2023-12-01T01:10:30.151Z,87.50
2023-12-01T01:12:58.606Z,84.50
2023-12-01T01:15:26.912Z,83.80
2023-12-01T01:17:55.390Z,83.40
2023-12-01T01:20:23.574Z,82.00
2023-12-01T01:22:51.417Z,84.70
2023-12-01T01:25:19.441Z,86.60
2023-12-01T01:27:47.510Z,82.70
2023-12-01T01:30:15.577Z,84.10
2023-12-01T01:32:43.536Z,83.40
2023-12-01T01:35:11.589Z,85.20
2023-12-01T01:37:41.109Z,85.50
2023-12-01T01:42:37.426Z,92.10
2023-12-01T01:45:06.587Z,89.90
2023-12-01T01:47:35.206Z,84.60
2023-12-01T01:50:04.837Z,90.00
2023-12-01T01:52:33.705Z,89.80
2023-12-01T01:55:01.912Z,86.50
2023-12-01T01:57:37.252Z,89.50
2023-12-01T02:00:07.612Z,88.60
2023-12-01T02:02:41.446Z,90.30
2023-12-01T02:05:14.947Z,90.70
2023-12-01T02:07:43.121Z,88.30
2023-12-01T02:10:17.185Z,88.90
2023-12-01T02:12:46.659Z,87.00
2023-12-01T02:15:14.816Z,90.50
2023-12-01T02:17:42.725Z,87.40
2023-12-01T02:20:16.928Z,81.30
2023-12-01T02:22:46.168Z,90.90
2023-12-01T02:25:14.104Z,93.80
2023-12-01T02:27:42.265Z,110.40
2023-12-01T02:30:13.266Z,113.00
2023-12-01T02:32:41.322Z,109.00
2023-12-01T02:35:11.696Z,103.60
2023-12-01T02:37:39.604Z,101.50
2023-12-01T02:40:17.618Z,101.20
2023-12-01T02:42:50.920Z,102.50
2023-12-01T02:45:20.256Z,104.50
2023-12-01T02:47:51.636Z,102.60
2023-12-01T02:50:20.077Z,101.40
2023-12-01T02:52:48.449Z,98.30
2023-12-01T02:55:16.713Z,97.60
2023-12-01T02:57:45.179Z,100.60
2023-12-01T03:00:16.957Z,98.80
2023-12-01T03:02:45.736Z,98.80
2023-12-01T03:05:14.013Z,97.40
2023-12-01T03:07:42.622Z,98.40
2023-12-01T03:10:10.905Z,95.30
2023-12-01T03:12:40.983Z,95.50
2023-12-01T03:15:14.058Z,92.60
2023-12-01T03:17:42.334Z,93.50
2023-12-01T03:20:12.036Z,92.10
2023-12-01T03:25:13.663Z,93.00
2023-12-01T03:27:44.667Z,91.30
2023-12-01T03:30:17.804Z,93.00
2023-12-01T03:32:47.545Z,92.20
2023-12-01T03:35:18.108Z,90.30
2023-12-01T03:37:46.378Z,91.10
2023-12-01T03:40:15.442Z,90.00
2023-12-01T03:42:53.412Z,95.30
2023-12-01T03:45:22.308Z,95.20
2023-12-01T03:47:51.796Z,94.10
2023-12-01T03:50:20.910Z,95.40
2023-12-01T03:52:51.185Z,93.20
2023-12-01T03:55:19.618Z,93.70
2023-12-01T03:57:47.559Z,90.70
2023-12-01T04:00:19.497Z,90.10
2023-12-01T04:02:49.460Z,90.60
2023-12-01T04:05:21.968Z,90.60
2023-12-01T04:07:55.322Z,86.90
2023-12-01T04:10:27.818Z,88.50
2023-12-01T04:12:56.913Z,85.70
2023-12-01T04:15:28.963Z,85.10
2023-12-01T04:17:57.060Z,84.20
2023-12-01T04:20:29.081Z,82.50
2023-12-01T04:23:02.262Z,84.30
2023-12-01T04:25:31.099Z,88.00
2023-12-01T04:27:59.825Z,85.10
2023-12-01T04:30:28.407Z,87.30
2023-12-01T04:32:58.799Z,87.30
2023-12-01T04:35:29.497Z,88.70
2023-12-01T04:37:59.302Z,86.40
2023-12-01T04:40:29.095Z,86.20
2023-12-01T04:42:58.823Z,87.40
2023-12-01T04:45:28.568Z,87.80
2023-12-01T04:47:56.813Z,84.90
2023-12-01T04:50:31.057Z,87.40
2023-12-01T04:53:02.025Z,86.60
2023-12-01T04:55:31.320Z,91.70
2023-12-01T04:58:02.081Z,88.00
2023-12-01T05:00:29.861Z,86.10
2023-12-01T05:03:06.601Z,85.30
2023-12-01T05:05:36.872Z,86.40
2023-12-01T05:08:10.337Z,91.70
2023-12-01T05:10:39.357Z,91.20
2023-12-01T05:13:08.698Z,92.40
2023-12-01T05:15:38.474Z,86.00
2023-12-01T05:18:08.606Z,87.60
2023-12-01T05:20:37.116Z,90.30
2023-12-01T05:23:12.613Z,90.40
2023-12-01T05:25:43.290Z,91.10
2023-12-01T05:28:12.898Z,89.30
2023-12-01T05:30:47.432Z,90.30
2023-12-01T05:33:15.851Z,89.40
2023-12-01T05:35:44.745Z,90.20
2023-12-01T05:38:12.760Z,96.00
2023-12-01T05:40:40.740Z,89.40
2023-12-01T05:43:09.312Z,90.50
2023-12-01T05:45:38.207Z,91.10
2023-12-01T05:50:43.482Z,94.30
2023-12-01T05:53:12.822Z,90.70
2023-12-01T05:55:40.619Z,90.80
2023-12-01T05:58:11.623Z,91.10
2023-12-01T06:00:41.389Z,90.00
2023-12-01T06:03:12.018Z,91.00
2023-12-01T06:05:40.797Z,93.50
2023-12-01T06:08:12.303Z,93.50
2023-12-01T06:10:40.807Z,93.30
2023-12-01T06:13:09.675Z,91.90
2023-12-01T06:15:37.895Z,86.00
2023-12-01T06:18:05.997Z,86.00
2023-12-01T06:20:35.998Z,86.00
2023-12-01T06:23:09.246Z,90.70
2023-12-01T06:25:39.906Z,89.20
2023-12-01T06:28:11.151Z,87.60
2023-12-01T06:30:40.052Z,84.60
2023-12-01T06:33:09.384Z,86.20
2023-12-01T06:35:38.659Z,87.70
2023-12-01T06:38:08.116Z,88.20
2023-12-01T06:40:36.065Z,88.50
2023-12-01T06:43:12.177Z,91.20
2023-12-01T06:45:44.289Z,89.70
2023-12-01T06:48:14.219Z,94.80
2023-12-01T06:50:42.782Z,91.10
2023-12-01T06:53:11.979Z,89.90
2023-12-01T06:55:41.692Z,89.70
2023-12-01T06:58:11.046Z,89.80
2023-12-01T07:03:09.972Z,93.50
2023-12-01T07:05:39.945Z,94.10
2023-12-01T07:08:16.818Z,92.90
2023-12-01T07:10:45.725Z,91.20
2023-12-01T07:13:14.429Z,88.20
2023-12-01T07:15:42.986Z,92.20
2023-12-01T07:18:13.338Z,89.80
2023-12-01T07:20:41.298Z,92.00
2023-12-01T07:23:09.454Z,92.20
2023-12-01T07:25:37.885Z,88.30
2023-12-01T07:28:08.000Z,89.10
2023-12-01T07:30:42.252Z,86.00
2023-12-01T07:33:31.183Z,89.20
2023-12-01T07:36:35.474Z,88.10
2023-12-01T07:39:02.869Z,88.00
2023-12-01T07:41:33.232Z,88.30
2023-12-01T07:44:01.049Z,86.70
2023-12-01T07:46:29.414Z,84.60
2023-12-01T07:49:08.828Z,88.10
2023-12-01T07:51:37.738Z,90.90
2023-12-01T07:54:05.789Z,84.70
2023-12-01T07:56:33.495Z,89.50
2023-12-01T07:59:07.027Z,88.60
2023-12-01T08:01:35.037Z,86.50
2023-12-01T08:04:03.848Z,85.30
2023-12-01T08:06:33.936Z,86.30
2023-12-01T08:09:02.272Z,87.30
2023-12-01T08:11:39.414Z,87.80
2023-12-01T08:14:13.582Z,88.50
2023-12-01T08:16:43.708Z,91.50
2023-12-01T08:19:11.943Z,91.40
2023-12-01T08:21:40.180Z,91.20
2023-12-01T08:24:08.149Z,90.20
2023-12-01T08:26:37.665Z,91.70
2023-12-01T08:29:06.306Z,90.30
2023-12-01T08:31:34.443Z,92.60
2023-12-01T08:34:02.469Z,95.10
2023-12-01T08:36:32.608Z,102.50
2023-12-01T08:39:01.443Z,105.00
2023-12-01T08:41:29.626Z,103.90
2023-12-01T08:43:58.027Z,98.10
2023-12-01T08:46:38.420Z,97.20
2023-12-01T08:49:10.454Z,90.60
2023-12-01T08:51:38.223Z,93.00
2023-12-01T08:54:12.929Z,93.50
2023-12-01T08:56:42.998Z,91.40
2023-12-01T08:59:11.003Z,95.20
2023-12-01T09:01:39.307Z,92.20
2023-12-01T09:04:07.531Z,94.00
2023-12-01T09:06:35.831Z,91.20
2023-12-01T09:09:06.510Z,91.90
2023-12-01T09:11:34.387Z,93.20
2023-12-01T09:14:02.096Z,94.30
2023-12-01T09:16:30.386Z,95.10
2023-12-01T09:18:58.714Z,93.80
2023-12-01T09:21:28.217Z,93.40
2023-12-01T09:23:56.470Z,88.40
2023-12-01T09:26:26.967Z,91.90
2023-12-01T09:28:55.740Z,93.40
2023-12-01T09:31:24.553Z,93.10
2023-12-01T09:33:55.213Z,93.90
2023-12-01T09:36:23.774Z,91.40
2023-12-01T09:38:51.947Z,93.50
2023-12-01T09:41:20.303Z,93.30
2023-12-01T09:43:54.583Z,98.40
2023-12-01T09:46:30.791Z,96.00
2023-12-01T09:49:00.467Z,94.50
2023-12-01T09:51:32.126Z,93.40
2023-12-01T09:54:01.149Z,93.60
2023-12-01T09:56:29.501Z,94.30
2023-12-01T09:58:58.546Z,95.80
2023-12-01T10:01:35.112Z,90.40
2023-12-01T10:04:10.882Z,93.60
2023-12-01T10:06:39.003Z,91.80
2023-12-01T10:09:14.338Z,89.60
2023-12-01T10:11:42.649Z,89.20
2023-12-01T10:14:12.945Z,91.90
2023-12-01T10:16:41.932Z,87.30
2023-12-01T10:19:13.093Z,90.10
2023-12-01T10:21:47.873Z,93.80
2023-12-01T10:24:25.149Z,94.70
2023-12-01T10:26:57.082Z,92.50
2023-12-01T10:29:48.449Z,92.10
2023-12-01T10:32:19.516Z,95.10
2023-12-01T10:34:53.930Z,96.60
2023-12-01T10:37:23.530Z,96.80
2023-12-01T10:39:55.816Z,96.00
2023-12-01T10:42:25.329Z,92.60
2023-12-01T10:44:56.418Z,94.00
2023-12-01T10:47:27.564Z,93.00
2023-12-01T10:49:59.554Z,90.20
2023-12-01T10:52:27.323Z,93.30
2023-12-01T10:54:55.246Z,94.30
2023-12-01T10:57:39.649Z,94.10
2023-12-01T11:00:29.887Z,94.30
2023-12-01T11:03:04.941Z,95.40
2023-12-01T11:05:36.522Z,99.70
2023-12-01T11:08:21.773Z,98.50
2023-12-01T11:11:03.459Z,101.00
2023-12-01T11:13:45.186Z,102.40
2023-12-01T11:16:15.382Z,100.00
2023-12-01T11:18:44.923Z,103.00
2023-12-01T11:23:40.708Z,100.70
2023-12-01T11:26:10.087Z,100.90
2023-12-01T11:28:46.008Z,101.40
2023-12-01T11:31:20.691Z,102.70
2023-12-01T11:33:59.158Z,101.30
2023-12-01T11:36:38.718Z,97.10
2023-12-01T11:39:31.507Z,102.20
2023-12-01T11:42:00.513Z,98.50
2023-12-01T11:44:32.154Z,96.90
2023-12-01T11:47:04.817Z,97.50
2023-12-01T11:49:43.295Z,97.90
2023-12-01T11:52:14.520Z,97.70
2023-12-01T11:54:43.502Z,96.90
2023-12-01T11:57:14.173Z,96.40
2023-12-01T11:59:42.788Z,94.60
2023-12-01T12:02:11.645Z,96.40
2023-12-01T12:04:39.785Z,97.60
2023-12-01T12:07:09.873Z,94.70
2023-12-01T12:09:40.636Z,93.80
2023-12-01T12:12:19.713Z,93.90
2023-12-01T12:14:52.411Z,95.10
2023-12-01T12:17:23.296Z,97.60
2023-12-01T12:19:58.494Z,96.90
2023-12-01T12:22:31.757Z,100.40
2023-12-01T12:27:38.414Z,96.70
2023-12-01T12:30:08.573Z,96.40
2023-12-01T12:32:38.198Z,98.50
2023-12-01T12:35:07.578Z,99.50
2023-12-01T12:37:36.682Z,100.50
2023-12-01T12:40:09.547Z,102.10
2023-12-01T12:42:38.516Z,99.50
2023-12-01T12:45:07.256Z,103.20
2023-12-01T12:47:39.078Z,106.70
2023-12-01T12:50:10.563Z,100.30
2023-12-01T12:52:40.517Z,103.10
2023-12-01T12:55:10.773Z,104.80
2023-12-01T12:57:38.890Z,102.80
2023-12-01T13:00:09.815Z,103.50
2023-12-01T13:02:37.822Z,100.10
2023-12-01T13:05:06.008Z,101.30
2023-12-01T13:07:34.278Z,102.20
2023-12-01T13:10:23.580Z,103.60
2023-12-01T13:12:59.233Z,106.60
2023-12-01T13:15:34.917Z,103.90
2023-12-01T13:18:03.412Z,102.80
2023-12-01T13:20:53.778Z,109.80
2023-12-01T13:23:27.216Z,107.10
2023-12-01T13:25:55.540Z,107.40
2023-12-01T13:28:23.843Z,105.20
2023-12-01T13:30:51.678Z,108.10
2023-12-01T13:33:19.907Z,105.20
2023-12-01T13:35:48.501Z,107.30
2023-12-01T13:38:19.179Z,106.40
2023-12-01T13:40:50.994Z,104.10
2023-12-01T13:43:18.876Z,104.10
2023-12-01T13:48:42.296Z,103.90
2023-12-01T13:51:10.812Z,104.40
2023-12-01T13:53:41.019Z,101.80
2023-12-01T13:56:13.370Z,102.40
2023-12-01T13:58:43.849Z,102.10
2023-12-01T14:01:14.619Z,100.10
2023-12-01T14:06:59.490Z,92.60
2023-12-01T14:09:27.276Z,95.40
2023-12-01T14:12:12.485Z,101.70
2023-12-01T14:14:51.952Z,95.60
2023-12-01T14:17:38.646Z,95.90
2023-12-01T14:20:08.350Z,100.40
2023-12-01T14:22:37.803Z,91.80
2023-12-01T14:25:07.842Z,94.50
2023-12-01T14:27:35.764Z,95.00
2023-12-01T14:30:10.232Z,89.60
2023-12-01T14:32:40.269Z,91.10
2023-12-01T14:35:09.188Z,73.60
2023-12-01T14:37:57.511Z,68.80
2023-12-01T14:40:25.400Z,72.20
2023-12-01T14:42:53.190Z,81.80
2023-12-01T14:45:21.442Z,85.60
2023-12-01T14:50:51.644Z,91.40
2023-12-01T14:53:19.976Z,89.40
2023-12-01T14:55:53.620Z,90.40
2023-12-01T14:58:22.683Z,90.40
2023-12-01T15:00:59.204Z,91.00
2023-12-01T15:03:27.148Z,94.70
2023-12-01T15:05:55.327Z,95.00
2023-12-01T15:08:23.977Z,93.60
2023-12-01T15:10:51.886Z,90.80
2023-12-01T15:13:19.826Z,89.20
2023-12-01T15:15:47.588Z,91.50
2023-12-01T15:18:15.596Z,88.90
2023-12-01T15:20:43.672Z,89.90
2023-12-01T15:23:12.245Z,90.20
2023-12-01T15:25:41.412Z,89.30
2023-12-01T15:28:09.384Z,75.70
2023-12-01T15:30:37.528Z,51.30
2023-12-01T15:33:05.785Z,46.80
2023-12-01T15:35:33.912Z,44.50
2023-12-01T15:38:01.651Z,41.60
2023-12-01T15:40:30.172Z,39.60
2023-12-01T15:42:58.363Z,41.70
2023-12-01T15:45:26.189Z,40.40
2023-12-01T15:47:54.366Z,38.90
2023-12-01T15:50:22.450Z,38.60
2023-12-01T15:52:51.063Z,37.70
2023-12-01T15:55:19.763Z,38.70
2023-12-01T15:57:47.694Z,37.80
2023-12-01T16:00:16.333Z,37.70
2023-12-01T16:02:44.586Z,36.90
2023-12-01T16:05:13.450Z,37.40
2023-12-01T16:07:41.237Z,38.80
2023-12-01T16:10:10.019Z,38.20
2023-12-01T16:12:38.226Z,36.70
2023-12-01T16:15:15.466Z,37.60
2023-12-01T16:17:46.442Z,39.20
2023-12-01T16:20:14.505Z,39.10
2023-12-01T16:22:42.485Z,40.40
2023-12-01T16:25:11.486Z,38.70
2023-12-01T16:27:39.296Z,40.40
2023-12-01T16:30:08.170Z,39.80
2023-12-01T16:32:36.463Z,41.30
2023-12-01T16:35:06.484Z,40.50
2023-12-01T16:37:35.757Z,39.80
2023-12-01T16:40:06.425Z,42.00
2023-12-01T16:42:34.285Z,41.90
2023-12-01T16:45:02.154Z,39.40
2023-12-01T16:47:30.980Z,40.50
2023-12-01T16:49:58.733Z,40.10
2023-12-01T16:52:26.561Z,39.20
2023-12-01T16:54:54.657Z,40.10
2023-12-01T16:57:23.222Z,40.20
2023-12-01T16:59:51.147Z,41.90
2023-12-01T17:02:19.304Z,40.30
2023-12-01T17:04:47.134Z,41.10
2023-12-01T17:07:15.047Z,40.90
2023-12-01T17:09:42.944Z,44.10
2023-12-01T17:12:10.711Z,40.60
2023-12-01T17:14:39.320Z,43.30
2023-12-01T17:17:11.835Z,42.80
2023-12-01T17:19:39.828Z,43.00
2023-12-01T17:22:07.582Z,44.50
2023-12-01T17:24:40.940Z,41.30
2023-12-01T17:27:14.833Z,42.10
2023-12-01T17:29:43.606Z,41.60
2023-12-01T17:32:11.660Z,43.10
2023-12-01T17:34:39.584Z,44.40
2023-12-01T17:37:08.065Z,45.90
2023-12-01T17:39:36.106Z,46.90
2023-12-01T17:42:04.006Z,47.40
2023-12-01T17:44:32.055Z,49.50
2023-12-01T17:47:00.117Z,50.50
2023-12-01T17:49:28.077Z,48.40
2023-12-01T17:51:56.370Z,51.00
2023-12-01T17:54:26.846Z,52.20
2023-12-01T17:56:54.731Z,49.30
2023-12-01T17:59:23.124Z,52.30
2023-12-01T18:01:50.978Z,53.60
2023-12-01T18:04:19.135Z,53.80
2023-12-01T18:06:49.106Z,54.70
2023-12-01T18:09:17.103Z,55.70
2023-12-01T18:11:45.386Z,54.90
2023-12-01T18:14:14.529Z,56.40
2023-12-01T18:16:42.315Z,59.90
2023-12-01T18:19:10.267Z,60.10
2023-12-01T18:21:38.531Z,59.40
2023-12-01T18:24:06.993Z,60.30
2023-12-01T18:26:38.692Z,61.50
2023-12-01T18:29:09.807Z,61.40
2023-12-01T18:31:38.068Z,62.90
2023-12-01T18:34:06.182Z,67.60
2023-12-01T18:36:34.388Z,64.10
2023-12-01T18:39:02.422Z,65.70
2023-12-01T18:41:30.337Z,65.10
2023-12-01T18:43:58.741Z,63.90
2023-12-01T18:46:26.483Z,63.00
2023-12-01T18:48:54.599Z,64.80
2023-12-01T18:51:22.785Z,64.00
2023-12-01T18:53:50.583Z,63.10
2023-12-01T18:56:18.495Z,63.50
2023-12-01T18:58:48.911Z,66.40
2023-12-01T19:01:16.838Z,66.80
2023-12-01T19:03:44.815Z,70.00
2023-12-01T19:06:13.250Z,72.20
2023-12-01T19:08:41.039Z,77.50
2023-12-01T19:11:08.853Z,73.20
2023-12-01T19:13:37.136Z,71.80
2023-12-01T19:16:05.680Z,71.50
2023-12-01T19:18:33.416Z,75.30
2023-12-01T19:21:01.836Z,71.30
2023-12-01T19:23:29.598Z,72.40
2023-12-01T19:25:58.521Z,71.60
2023-12-01T19:28:26.726Z,70.00
2023-12-01T19:30:54.777Z,71.50
2023-12-01T19:33:22.740Z,74.10
2023-12-01T19:35:51.136Z,74.10
2023-12-01T19:38:19.045Z,71.70
2023-12-01T19:40:47.160Z,79.10
2023-12-01T19:43:15.103Z,78.20
2023-12-01T19:45:42.999Z,78.40
2023-12-01T19:48:10.868Z,75.80
2023-12-01T19:50:41.268Z,72.60
2023-12-01T19:53:09.008Z,73.50
2023-12-01T19:55:36.754Z,78.30
2023-12-01T19:58:04.862Z,77.60
2023-12-01T20:00:32.581Z,77.00
2023-12-01T20:03:00.437Z,78.70
2023-12-01T20:05:29.774Z,76.10
2023-12-01T20:07:58.469Z,74.10
2023-12-01T20:10:26.202Z,71.20
2023-12-01T20:12:54.843Z,75.90
2023-12-01T20:15:22.560Z,71.70
2023-12-01T20:17:50.433Z,68.80
2023-12-01T20:20:20.121Z,72.30
2023-12-01T20:22:47.909Z,68.80
2023-12-01T20:25:15.635Z,65.60
2023-12-01T20:27:43.852Z,65.70
2023-12-01T20:30:12.452Z,65.10
2023-12-01T20:32:40.493Z,66.90
2023-12-01T20:35:08.591Z,67.40
2023-12-01T20:37:36.440Z,68.60
2023-12-01T20:40:05.939Z,64.90
2023-12-01T20:42:34.179Z,67.50
2023-12-01T20:45:02.227Z,66.80
2023-12-01T20:47:30.520Z,67.80
2023-12-01T20:49:58.743Z,71.20
2023-12-01T20:52:26.454Z,71.30
2023-12-01T20:54:54.192Z,79.20
2023-12-01T20:57:22.584Z,73.00
2023-12-01T20:59:50.379Z,70.00
2023-12-01T21:02:18.112Z,83.50
2023-12-01T21:04:46.185Z,69.60
2023-12-01T21:07:14.000Z,63.60
2023-12-01T21:09:41.847Z,56.70
2023-12-01T21:12:10.232Z,56.00
2023-12-01T21:14:37.960Z,57.90
2023-12-01T21:17:05.688Z,61.40
2023-12-01T21:19:34.206Z,62.20
2023-12-01T21:22:02.000Z,64.10
2023-12-01T21:24:30.480Z,64.90
2023-12-01T21:26:58.689Z,61.40
2023-12-01T21:29:26.484Z,58.50
2023-12-01T21:31:54.210Z,55.50
2023-12-01T21:34:22.788Z,54.00
2023-12-01T21:36:50.587Z,55.20
2023-12-01T21:39:18.308Z,51.30
2023-12-01T21:41:46.495Z,46.90
2023-12-01T21:44:15.096Z,37.40
2023-12-01T21:46:43.041Z,34.40
2023-12-01T21:49:11.204Z,32.30
2023-12-01T21:51:39.035Z,31.30
2023-12-01T21:54:07.012Z,27.80
2023-12-01T21:56:35.219Z,31.60
2023-12-01T21:59:03.897Z,31.20
2023-12-01T22:01:31.626Z,35.40
2023-12-01T22:04:00.776Z,27.60
2023-12-01T22:06:28.880Z,28.20
2023-12-01T22:08:56.704Z,27.80
2023-12-01T22:11:25.083Z,26.90
2023-12-01T22:13:53.242Z,28.70
2023-12-01T22:16:21.128Z,26.30
2023-12-01T22:18:51.983Z,24.40
2023-12-01T22:21:20.153Z,22.90
2023-12-01T22:23:47.952Z,20.20
2023-12-01T22:26:16.024Z,19.60
2023-12-01T22:28:44.370Z,20.20
2023-12-01T22:31:12.117Z,20.30
2023-12-01T22:33:40.332Z,21.00
2023-12-01T22:36:09.595Z,20.90
2023-12-01T22:38:37.320Z,21.40
2023-12-01T22:41:06.604Z,22.20
2023-12-01T22:43:34.565Z,24.80
2023-12-01T22:46:04.717Z,22.70
2023-12-01T22:48:32.882Z,24.50
2023-12-01T22:51:01.221Z,25.40
2023-12-01T22:53:29.012Z,26.20
2023-12-01T22:55:57.044Z,27.50
2023-12-01T22:58:25.064Z,24.50
2023-12-01T23:00:52.854Z,26.80
2023-12-01T23:03:21.010Z,26.60
2023-12-01T23:05:49.108Z,27.90
2023-12-01T23:08:17.393Z,25.90
2023-12-01T23:10:48.058Z,25.30
2023-12-01T23:13:16.023Z,27.30
2023-12-01T23:15:44.047Z,26.60
2023-12-01T23:18:12.230Z,27.20
2023-12-01T23:20:40.380Z,26.40
2023-12-01T23:23:08.281Z,28.50
2023-12-01T23:25:36.211Z,28.70
2023-12-01T23:28:04.452Z,29.90
2023-12-01T23:30:32.375Z,29.10
2023-12-01T23:33:00.553Z,30.10
2023-12-01T23:35:28.638Z,28.60
2023-12-01T23:37:56.455Z,30.30
2023-12-01T23:40:25.434Z,30.30
2023-12-01T23:42:53.483Z,30.80
2023-12-01T23:45:21.282Z,32.00
2023-12-01T23:47:49.316Z,31.70
2023-12-01T23:50:17.230Z,34.20
2023-12-01T23:52:44.965Z,33.30
2023-12-01T23:55:12.678Z,33.40
2023-12-01T23:57:41.618Z,35.10
